Time;durP1;ratioP1;P1;durP2;ratioP2;P2;SDS_P1;SDS_P2;PMS_P1;PMS_P2;Temp;Humidity;BMP_temperature;BMP_pressure;BME280_temperature;BME280_humidity;BME280_pressure;Samples;Min_cycle;Max_cycle;Signal;HPM_P1;HPM_P2
2022/11/19 00:00:54;;;;;;;8.32;7.20;;;6.90;99.90;;;;;;4871540;29;20048;-71
2022/11/19 00:03:21;;;;;;;8.10;6.65;;;6.80;99.90;;;;;;4867010;29;20526;-72
2022/11/19 00:05:48;;;;;;;8.43;6.78;;;6.70;99.90;;;;;;4865114;29;20092;-72
2022/11/19 00:08:17;;;;;;;8.00;6.68;;;6.70;99.90;;;;;;4865515;29;20673;-71
2022/11/19 00:10:44;;;;;;;15.77;7.07;;;6.60;99.90;;;;;;4879080;29;20043;-71
2022/11/19 00:13:11;;;;;;;10.30;7.72;;;6.70;99.90;;;;;;4867201;29;20111;-72
2022/11/19 00:15:37;;;;;;;9.45;7.32;;;6.70;99.90;;;;;;4871864;29;20040;-71
2022/11/19 00:18:03;;;;;;;7.97;6.63;;;6.80;99.90;;;;;;4870302;29;20656;-72
2022/11/19 00:20:29;;;;;;;8.50;6.78;;;6.70;99.90;;;;;;4873460;29;20052;-73
2022/11/19 00:22:56;;;;;;;9.85;6.93;;;6.40;99.90;;;;;;4870141;29;20064;-71
2022/11/19 00:25:23;;;;;;;10.68;6.93;;;6.00;99.90;;;;;;4854378;29;20104;-72
2022/11/19 00:27:49;;;;;;;8.25;6.63;;;5.60;99.90;;;;;;4862630;29;20057;-72
2022/11/19 00:30:16;;;;;;;9.27;7.20;;;5.40;99.90;;;;;;4874565;29;20119;-70
2022/11/19 00:32:41;;;;;;;8.48;6.60;;;5.30;99.90;;;;;;4868932;29;20044;-69
2022/11/19 00:35:08;;;;;;;8.88;7.25;;;5.10;99.90;;;;;;4867972;29;20474;-70
2022/11/19 00:37:33;;;;;;;8.43;7.20;;;5.00;99.90;;;;;;4872036;29;20570;-70
2022/11/19 00:40:00;;;;;;;9.88;7.28;;;4.90;99.90;;;;;;4873927;29;20489;-69
2022/11/19 00:42:26;;;;;;;8.77;6.90;;;4.90;99.90;;;;;;4869132;29;20055;-70
2022/11/19 00:44:52;;;;;;;9.43;7.32;;;4.90;99.90;;;;;;4873609;29;20033;-70
2022/11/19 00:47:18;;;;;;;9.93;8.00;;;4.90;99.90;;;;;;4867430;29;20155;-70
2022/11/19 00:49:43;;;;;;;9.85;7.65;;;4.90;99.90;;;;;;4873830;29;20036;-70
2022/11/19 00:52:09;;;;;;;10.70;8.07;;;5.00;99.90;;;;;;4870139;29;20021;-70
2022/11/19 00:54:35;;;;;;;10.30;8.30;;;4.90;99.90;;;;;;4872494;29;20040;-70
2022/11/19 00:57:00;;;;;;;10.35;8.15;;;4.90;99.90;;;;;;4870039;29;20056;-70
2022/11/19 00:59:26;;;;;;;11.32;8.50;;;4.80;99.90;;;;;;4871904;29;20160;-70
2022/11/19 01:01:52;;;;;;;9.90;7.95;;;4.80;99.90;;;;;;4872901;29;20036;-69
2022/11/19 01:04:17;;;;;;;9.38;8.07;;;4.80;99.90;;;;;;4869513;29;20569;-71
2022/11/19 01:06:43;;;;;;;10.98;8.20;;;4.70;99.90;;;;;;4869636;29;20616;-70
2022/11/19 01:09:09;;;;;;;9.43;8.07;;;4.80;99.90;;;;;;4868613;29;20051;-70
2022/11/19 01:11:36;;;;;;;10.40;8.48;;;4.80;99.90;;;;;;4874085;29;20032;-68
2022/11/19 01:14:03;;;;;;;11.52;9.45;;;4.80;99.90;;;;;;4875656;29;20056;-70
2022/11/19 01:16:32;;;;;;;12.88;9.38;;;4.60;99.90;;;;;;4870139;29;20119;-70
2022/11/19 01:18:58;;;;;;;13.00;9.27;;;4.60;99.90;;;;;;4866964;29;20446;-70
2022/11/19 01:21:27;;;;;;;12.70;8.68;;;4.60;99.90;;;;;;4869109;29;21002;-70
2022/11/19 01:23:53;;;;;;;11.85;9.38;;;4.60;99.90;;;;;;4861522;29;20059;-71
2022/11/19 01:26:19;;;;;;;12.45;9.25;;;4.70;99.90;;;;;;4866425;29;20036;-70
2022/11/19 01:28:45;;;;;;;13.00;9.50;;;4.70;99.90;;;;;;4861136;29;20132;-71
2022/11/19 01:31:15;;;;;;;12.93;9.90;;;4.60;99.90;;;;;;4857838;29;20084;-70
2022/11/19 01:33:41;;;;;;;13.73;10.27;;;4.50;99.90;;;;;;4861622;29;20371;-71
2022/11/19 01:36:11;;;;;;;12.57;8.90;;;4.60;99.90;;;;;;4866983;29;20044;-70
2022/11/19 01:38:37;;;;;;;12.50;9.27;;;4.60;99.90;;;;;;4869161;29;20138;-71
2022/11/19 01:41:03;;;;;;;11.27;9.27;;;4.60;99.90;;;;;;4867147;29;21106;-70
2022/11/19 01:43:44;;;;;;;10.70;8.63;;;4.70;99.90;;;;;;4867724;29;20048;-70
2022/11/19 01:46:16;;;;;;;10.80;8.70;;;4.90;99.90;;;;;;4866899;29;20055;-70
2022/11/19 01:48:49;;;;;;;11.27;8.77;;;5.00;99.90;;;;;;4865413;29;20049;-70
2022/11/19 01:51:20;;;;;;;12.13;8.77;;;5.10;99.90;;;;;;4864932;29;20521;-71
2022/11/19 01:53:48;;;;;;;12.57;9.00;;;5.20;99.90;;;;;;4864450;29;20049;-71
2022/11/19 01:56:15;;;;;;;14.55;8.77;;;5.20;99.90;;;;;;4865895;29;21086;-71
2022/11/19 01:58:45;;;;;;;10.57;8.75;;;5.20;99.90;;;;;;4865400;29;20041;-70
2022/11/19 02:01:11;;;;;;;11.70;8.73;;;5.30;99.90;;;;;;4876156;29;20112;-69
2022/11/19 02:03:38;;;;;;;10.55;8.35;;;5.20;99.90;;;;;;4866713;29;20039;-70
2022/11/19 02:06:05;;;;;;;9.88;7.88;;;5.20;99.90;;;;;;4866804;29;20394;-70
2022/11/19 02:08:35;;;;;;;14.02;9.10;;;5.20;99.90;;;;;;4868268;29;20071;-70
2022/11/19 02:11:12;;;;;;;13.20;9.10;;;5.40;99.90;;;;;;4863499;29;20052;-70
2022/11/19 02:14:01;;;;;;;13.18;9.63;;;5.40;99.90;;;;;;4871608;29;20028;-70
2022/11/19 02:16:41;;;;;;;12.40;9.10;;;5.50;99.90;;;;;;4863030;29;20051;-70
2022/11/19 02:19:27;;;;;;;12.68;9.68;;;5.40;99.90;;;;;;4864996;29;20116;-70
2022/11/19 02:22:10;;;;;;;13.40;9.52;;;5.40;99.90;;;;;;4880820;29;20135;-72
2022/11/19 02:24:51;;;;;;;12.43;9.65;;;5.40;99.90;;;;;;4867364;29;20056;-72
2022/11/19 02:27:35;;;;;;;14.07;9.32;;;5.30;99.90;;;;;;4869086;29;20096;-73
2022/11/19 02:30:04;;;;;;;14.40;10.30;;;5.20;99.90;;;;;;4863050;29;20065;-72
2022/11/19 02:32:39;;;;;;;16.27;11.23;;;5.30;99.90;;;;;;4867171;29;20672;-73
2022/11/19 02:35:15;;;;;;;16.05;11.75;;;5.40;99.90;;;;;;4869907;29;20581;-73
2022/11/19 02:37:46;;;;;;;12.48;9.25;;;5.30;99.90;;;;;;4865752;29;20068;-73
2022/11/19 02:40:35;;;;;;;18.25;12.20;;;5.30;99.90;;;;;;4867730;29;20032;-73
2022/11/19 02:43:31;;;;;;;13.52;10.05;;;4.90;99.90;;;;;;4858072;29;20113;-72
2022/11/19 02:46:10;;;;;;;15.70;10.73;;;4.70;99.90;;;;;;4859926;29;20550;-72
2022/11/19 02:48:48;;;;;;;17.55;12.15;;;4.40;99.90;;;;;;4863039;29;20134;-72
2022/11/19 02:51:15;;;;;;;21.00;14.80;;;4.00;99.90;;;;;;4868620;29;20509;-72
2022/11/19 02:53:40;;;;;;;16.60;11.45;;;3.80;99.90;;;;;;4859575;29;20040;-72
2022/11/19 02:56:44;;;;;;;15.18;11.57;;;3.60;99.90;;;;;;4863572;29;20184;-73
2022/11/19 03:04:42;;;;;;;17.00;10.90;;;3.60;99.90;;;;;;4869129;29;20195;-73
2022/11/19 03:07:12;;;;;;;18.65;11.75;;;3.70;99.90;;;;;;4878940;29;20052;-72
2022/11/19 03:09:45;;;;;;;18.02;11.90;;;3.80;99.90;;;;;;4868347;29;20534;-73
2022/11/19 03:12:16;;;;;;;16.95;12.32;;;3.80;99.90;;;;;;4870058;29;20553;-73
2022/11/19 03:18:21;;;;;;;17.30;12.30;;;3.80;99.90;;;;;;4867469;29;20140;-73
2022/11/19 03:21:08;;;;;;;17.42;12.65;;;3.70;99.90;;;;;;4868700;29;20045;-73
2022/11/19 03:24:03;;;;;;;16.45;12.45;;;3.70;99.90;;;;;;4883375;29;20411;-73
2022/11/19 03:26:45;;;;;;;17.45;12.38;;;3.80;99.90;;;;;;4883085;29;20064;-72
2022/11/19 03:29:13;;;;;;;16.52;12.18;;;3.80;99.90;;;;;;4872998;29;20091;-73
2022/11/19 03:31:41;;;;;;;16.98;11.60;;;3.80;99.90;;;;;;4890882;29;20044;-73
2022/11/19 03:34:13;;;;;;;16.60;12.07;;;4.00;99.90;;;;;;4893804;29;20078;-73
2022/11/19 03:36:40;;;;;;;17.50;12.85;;;4.00;99.90;;;;;;4890685;29;20028;-73
2022/11/19 03:39:14;;;;;;;17.17;11.80;;;4.20;99.90;;;;;;4890362;29;20035;-73
2022/11/19 03:41:42;;;;;;;18.33;13.15;;;4.30;99.90;;;;;;4888964;29;20040;-74
2022/11/19 03:44:20;;;;;;;16.40;11.70;;;4.20;99.90;;;;;;4894855;29;20040;-73
2022/11/19 03:46:53;;;;;;;16.38;11.63;;;4.20;99.90;;;;;;4889680;29;20558;-73
2022/11/19 03:49:27;;;;;;;16.63;11.98;;;4.20;99.90;;;;;;4886561;29;20075;-73
2022/11/19 03:52:02;;;;;;;16.77;11.43;;;4.20;99.90;;;;;;4887556;29;20068;-73
2022/11/19 03:54:28;;;;;;;16.05;11.98;;;4.20;99.90;;;;;;4890181;29;20941;-73
2022/11/19 03:56:55;;;;;;;17.00;11.82;;;4.10;99.90;;;;;;4888182;29;20127;-74
2022/11/19 03:59:22;;;;;;;16.02;11.27;;;4.00;99.90;;;;;;4886669;29;20076;-73
2022/11/19 04:01:51;;;;;;;18.95;11.60;;;3.80;99.90;;;;;;4883123;29;20151;-74
2022/11/19 04:04:38;;;;;;;17.98;12.02;;;3.70;99.90;;;;;;4889622;29;20048;-73
2022/11/19 04:07:10;;;;;;;17.27;11.85;;;3.70;99.90;;;;;;4890086;29;20044;-74
2022/11/19 04:09:36;;;;;;;18.27;12.27;;;3.60;99.90;;;;;;4889641;29;20041;-74
2022/11/19 04:12:03;;;;;;;15.20;11.18;;;3.60;99.90;;;;;;4888775;29;20044;-73
2022/11/19 04:14:29;;;;;;;16.02;11.23;;;3.60;99.90;;;;;;4894040;29;20037;-73
2022/11/19 04:16:54;;;;;;;17.00;11.63;;;3.60;99.90;;;;;;4888646;29;20507;-73
2022/11/19 04:19:20;;;;;;;17.42;11.88;;;3.60;99.90;;;;;;4889894;29;20055;-74
2022/11/19 04:21:46;;;;;;;14.50;11.43;;;3.60;99.90;;;;;;4885795;29;20059;-74
2022/11/19 04:24:12;;;;;;;17.92;11.68;;;3.60;99.90;;;;;;4868652;29;21926;-73
2022/11/19 04:26:37;;;;;;;14.73;10.43;;;3.60;99.90;;;;;;4872577;29;21106;-73
2022/11/19 04:29:06;;;;;;;14.57;10.60;;;3.70;99.90;;;;;;4869949;29;20057;-74
2022/11/19 04:31:32;;;;;;;16.80;10.45;;;3.70;99.90;;;;;;4869615;29;20684;-72
2022/11/19 04:33:58;;;;;;;16.58;11.30;;;3.70;99.90;;;;;;4867575;29;20063;-73
2022/11/19 04:36:23;;;;;;;13.75;10.43;;;3.60;99.90;;;;;;4866760;29;20051;-73
2022/11/19 04:38:49;;;;;;;16.77;11.65;;;3.60;99.90;;;;;;4871360;29;20441;-71
2022/11/19 04:41:14;;;;;;;15.80;11.27;;;3.70;99.90;;;;;;4866838;29;21529;-73
2022/11/19 04:43:40;;;;;;;15.60;9.95;;;3.70;99.90;;;;;;4866085;29;20033;-72
2022/11/19 04:46:06;;;;;;;14.20;10.13;;;3.80;99.90;;;;;;4877163;29;23550;-73
2022/11/19 04:48:31;;;;;;;13.98;10.15;;;3.80;99.90;;;;;;4871897;29;20103;-72
2022/11/19 04:50:57;;;;;;;15.02;10.13;;;3.80;99.90;;;;;;4870066;29;20057;-72
2022/11/19 04:53:22;;;;;;;16.60;10.50;;;3.90;99.90;;;;;;4866487;29;20048;-73
2022/11/19 04:55:48;;;;;;;16.00;10.13;;;4.10;99.90;;;;;;4869642;29;20063;-73
2022/11/19 04:58:14;;;;;;;13.27;10.13;;;4.10;99.90;;;;;;4866160;29;20036;-73
2022/11/19 05:00:40;;;;;;;11.55;8.45;;;4.10;99.90;;;;;;4874056;29;20064;-75
2022/11/19 05:03:05;;;;;;;13.15;9.48;;;4.20;99.90;;;;;;4868505;29;20067;-75
2022/11/19 05:05:31;;;;;;;11.40;8.38;;;4.20;99.90;;;;;;4862855;29;20044;-75
2022/11/19 05:07:56;;;;;;;12.38;8.93;;;4.30;99.90;;;;;;4871181;29;20068;-75
2022/11/19 05:10:22;;;;;;;13.20;9.52;;;4.50;99.90;;;;;;4865818;29;20040;-75
2022/11/19 05:12:48;;;;;;;13.07;9.00;;;4.50;99.90;;;;;;4869317;29;20040;-75
2022/11/19 05:15:14;;;;;;;14.60;10.55;;;4.60;99.90;;;;;;4870410;29;20581;-75
2022/11/19 05:17:39;;;;;;;14.73;10.75;;;4.60;99.90;;;;;;4872395;29;20040;-73
2022/11/19 05:20:05;;;;;;;17.92;12.10;;;4.70;99.90;;;;;;4867843;29;20036;-73
2022/11/19 05:22:31;;;;;;;18.50;13.15;;;4.70;99.90;;;;;;4868685;29;20067;-73
2022/11/19 05:24:57;;;;;;;18.77;13.65;;;4.80;99.90;;;;;;4868717;29;20045;-72
2022/11/19 05:27:22;;;;;;;22.88;20.08;;;4.70;99.90;;;;;;4864622;29;20075;-73
2022/11/19 05:29:48;;;;;;;18.30;13.80;;;4.70;99.90;;;;;;4869629;29;20036;-73
2022/11/19 05:32:13;;;;;;;15.90;11.45;;;4.80;99.90;;;;;;4868806;29;20438;-72
2022/11/19 05:34:39;;;;;;;18.05;12.98;;;4.90;99.90;;;;;;4869975;29;20052;-73
2022/11/19 05:37:05;;;;;;;16.02;11.57;;;4.80;99.90;;;;;;4867737;29;20033;-73
2022/11/19 05:39:30;;;;;;;16.27;11.57;;;4.60;99.90;;;;;;4867773;29;20189;-72
2022/11/19 05:41:56;;;;;;;16.42;11.55;;;4.40;99.90;;;;;;4870137;29;20060;-73
2022/11/19 05:44:21;;;;;;;13.60;10.90;;;4.20;99.90;;;;;;4865449;29;20040;-72
2022/11/19 05:46:47;;;;;;;19.05;12.65;;;4.10;99.90;;;;;;4874755;29;20451;-72
2022/11/19 05:49:13;;;;;;;16.75;12.32;;;4.10;99.90;;;;;;4870584;29;20109;-73
2022/11/19 05:51:38;;;;;;;17.75;13.25;;;3.90;99.90;;;;;;4866337;29;24056;-73
2022/11/19 05:54:04;;;;;;;17.42;11.93;;;3.80;99.90;;;;;;4864032;29;20053;-73
2022/11/19 05:56:30;;;;;;;16.90;12.13;;;3.90;99.90;;;;;;4868168;29;20041;-72
2022/11/19 05:58:55;;;;;;;15.57;12.02;;;3.80;99.90;;;;;;4869543;29;20035;-72
2022/11/19 06:01:26;;;;;;;17.23;12.82;;;3.90;99.90;;;;;;4868143;29;21564;-73
2022/11/19 06:03:51;;;;;;;17.92;13.02;;;3.90;99.90;;;;;;4869074;29;20037;-72
2022/11/19 06:06:17;;;;;;;24.77;12.48;;;4.00;99.90;;;;;;4868174;29;20040;-73
2022/11/19 06:08:43;;;;;;;13.50;10.57;;;4.00;99.90;;;;;;4870597;29;20067;-73
2022/11/19 06:11:46;;;;;;;15.82;11.63;;;3.80;99.90;;;;;;4865964;29;20037;-72
2022/11/19 06:13:58;;;;;;;15.80;11.65;;;3.70;99.90;;;;;;4870971;29;20168;-73
2022/11/19 06:16:24;;;;;;;16.77;11.55;;;3.70;99.90;;;;;;4869879;29;20060;-74
2022/11/19 06:18:50;;;;;;;15.88;11.95;;;3.70;99.90;;;;;;4872802;29;20115;-73
2022/11/19 06:21:16;;;;;;;17.17;12.00;;;3.70;99.90;;;;;;4869103;29;20048;-73
2022/11/19 06:23:41;;;;;;;20.02;12.57;;;3.70;99.90;;;;;;4870135;29;20088;-73
2022/11/19 06:26:08;;;;;;;17.98;12.82;;;3.60;99.90;;;;;;4869376;29;20508;-73
2022/11/19 06:28:34;;;;;;;18.38;12.20;;;3.70;99.90;;;;;;4867056;29;20517;-72
2022/11/19 06:31:00;;;;;;;17.83;12.07;;;3.70;99.90;;;;;;4868014;29;20071;-73
2022/11/19 06:33:25;;;;;;;17.90;12.40;;;3.60;99.90;;;;;;4864900;29;20390;-73
2022/11/19 06:35:51;;;;;;;16.92;12.30;;;3.70;99.90;;;;;;4869808;29;20107;-73
2022/11/19 06:38:17;;;;;;;17.73;12.90;;;3.70;99.90;;;;;;4866939;29;20493;-72
2022/11/19 06:40:44;;;;;;;17.00;11.77;;;3.70;99.90;;;;;;4864488;29;20096;-73
2022/11/19 06:43:10;;;;;;;16.17;11.98;;;3.70;99.90;;;;;;4860633;29;20378;-73
2022/11/19 06:45:36;;;;;;;17.85;12.20;;;3.70;99.90;;;;;;4866359;29;20125;-73
2022/11/19 06:48:01;;;;;;;18.48;12.75;;;3.80;99.90;;;;;;4871011;29;20069;-73
2022/11/19 06:50:27;;;;;;;18.23;13.25;;;3.90;99.90;;;;;;4868800;29;20037;-73
2022/11/19 06:52:52;;;;;;;18.38;12.75;;;4.00;99.90;;;;;;4868585;29;20128;-73
2022/11/19 06:55:18;;;;;;;20.50;13.27;;;4.00;99.90;;;;;;4868703;29;20524;-69
2022/11/19 06:57:44;;;;;;;18.27;12.30;;;3.90;99.90;;;;;;4863751;29;20131;-69
2022/11/19 07:00:11;;;;;;;19.17;13.35;;;3.90;99.90;;;;;;4866300;29;20032;-69
2022/11/19 07:02:36;;;;;;;18.13;12.68;;;4.00;99.90;;;;;;4867438;29;20045;-69
2022/11/19 07:05:03;;;;;;;18.95;12.75;;;3.90;99.90;;;;;;4870076;29;20101;-70
2022/11/19 07:07:29;;;;;;;19.92;12.50;;;3.90;99.90;;;;;;4862801;29;20052;-69
2022/11/19 07:09:54;;;;;;;18.58;13.27;;;4.00;99.90;;;;;;4865024;29;20048;-69
2022/11/19 07:12:20;;;;;;;19.83;14.00;;;4.00;99.90;;;;;;4859949;29;20040;-69
2022/11/19 07:14:45;;;;;;;19.42;13.10;;;4.00;99.90;;;;;;4870884;29;20383;-69
2022/11/19 07:17:11;;;;;;;17.00;12.30;;;4.00;99.90;;;;;;4867358;29;20115;-69
2022/11/19 07:19:37;;;;;;;18.50;13.00;;;3.90;99.90;;;;;;4869470;29;20048;-69
2022/11/19 07:22:02;;;;;;;17.63;12.90;;;4.00;99.90;;;;;;4866677;29;20076;-70
2022/11/19 07:24:28;;;;;;;18.95;13.07;;;4.10;99.90;;;;;;4866961;29;20044;-70
2022/11/19 07:26:54;;;;;;;19.73;13.18;;;4.20;99.90;;;;;;4870564;29;20033;-71
2022/11/19 07:29:20;;;;;;;20.17;12.85;;;4.20;99.90;;;;;;4865788;29;20144;-71
2022/11/19 07:31:49;;;;;;;17.77;13.32;;;4.30;99.90;;;;;;4878311;29;20090;-70
2022/11/19 07:34:15;;;;;;;18.52;12.73;;;4.30;99.90;;;;;;4859677;29;20505;-71
2022/11/19 07:36:41;;;;;;;20.58;13.65;;;4.30;99.90;;;;;;4862521;29;20128;-70
2022/11/19 07:39:08;;;;;;;21.85;13.60;;;4.30;99.90;;;;;;4870116;29;20029;-69
2022/11/19 07:44:18;;;;;;;17.77;12.73;;;4.50;99.90;;;;;;4867260;29;20056;-70
2022/11/19 07:46:44;;;;;;;18.70;12.55;;;4.60;99.90;;;;;;4869224;29;20032;-70
2022/11/19 07:49:09;;;;;;;16.73;12.10;;;4.70;99.90;;;;;;4876225;29;20112;-69
2022/11/19 07:51:35;;;;;;;16.00;11.88;;;4.70;99.90;;;;;;4875119;29;20039;-69
2022/11/19 07:54:01;;;;;;;19.83;12.48;;;4.80;99.90;;;;;;4877446;29;22128;-69
2022/11/19 07:56:26;;;;;;;18.20;13.20;;;5.00;99.90;;;;;;4871768;29;20072;-69
2022/11/19 07:58:52;;;;;;;20.02;13.70;;;5.00;99.90;;;;;;4872284;29;20127;-70
2022/11/19 08:01:20;;;;;;;18.05;14.02;;;5.10;99.90;;;;;;4871057;29;20032;-70
2022/11/19 08:03:48;;;;;;;15.82;11.15;;;5.00;99.90;;;;;;4872907;29;20105;-70
2022/11/19 08:06:16;;;;;;;18.73;14.23;;;5.10;99.90;;;;;;4868939;29;20059;-70
2022/11/19 08:08:42;;;;;;;18.50;13.30;;;5.20;99.90;;;;;;4876636;29;20688;-70
2022/11/19 08:11:10;;;;;;;19.90;13.88;;;5.20;99.90;;;;;;4875778;29;20080;-69
2022/11/19 08:13:38;;;;;;;22.35;13.77;;;5.10;99.90;;;;;;4875734;29;20056;-70
2022/11/19 08:16:06;;;;;;;18.33;13.45;;;5.10;99.90;;;;;;4880392;29;20056;-70
2022/11/19 08:18:31;;;;;;;17.27;12.40;;;5.10;99.90;;;;;;4877621;29;20589;-69
2022/11/19 08:21:06;;;;;;;19.77;13.38;;;5.10;99.90;;;;;;4881968;29;20040;-69
2022/11/19 08:23:32;;;;;;;18.40;12.38;;;5.10;99.90;;;;;;4872219;29;20152;-69
2022/11/19 08:25:58;;;;;;;20.10;12.13;;;5.10;99.90;;;;;;4871931;29;20032;-69
2022/11/19 08:28:24;;;;;;;18.73;13.38;;;5.10;99.90;;;;;;4872831;29;20493;-69
2022/11/19 08:51:28;;;;;;;20.50;16.02;;;4.90;99.90;;;;;;4893530;29;20086;-71
2022/11/19 08:53:54;;;;;;;20.85;14.93;;;5.10;99.90;;;;;;4893125;29;20044;-71
2022/11/19 08:56:21;;;;;;;19.33;12.30;;;5.20;99.90;;;;;;4893777;29;20024;-71
2022/11/19 08:58:47;;;;;;;19.13;12.75;;;5.20;99.90;;;;;;4898000;29;20512;-71
2022/11/19 09:01:14;;;;;;;17.17;12.05;;;5.40;99.90;;;;;;4903043;29;20056;-71
2022/11/19 09:03:40;;;;;;;18.48;13.98;;;5.50;99.90;;;;;;4900172;29;20059;-71
2022/11/19 09:06:06;;;;;;;17.15;12.18;;;5.60;99.90;;;;;;4898801;29;20158;-72
2022/11/19 09:08:32;;;;;;;19.20;12.75;;;5.80;99.90;;;;;;4893527;29;20056;-71
2022/11/19 09:10:58;;;;;;;14.55;11.00;;;5.90;99.90;;;;;;4900534;29;20184;-71
2022/11/19 09:13:24;;;;;;;16.77;11.48;;;5.80;99.90;;;;;;4897955;29;20158;-72
2022/11/19 09:15:50;;;;;;;17.55;11.70;;;5.70;99.90;;;;;;4896065;29;20517;-71
2022/11/19 09:18:17;;;;;;;17.33;12.45;;;5.60;99.90;;;;;;4892974;29;20047;-70
2022/11/19 09:20:43;;;;;;;22.40;14.45;;;5.50;99.90;;;;;;4894615;29;20530;-71
2022/11/19 09:23:09;;;;;;;18.85;13.80;;;5.60;99.90;;;;;;4890181;29;20039;-71
2022/11/19 09:25:35;;;;;;;22.48;15.35;;;5.80;99.90;;;;;;4892306;29;20044;-72
2022/11/19 09:28:00;;;;;;;20.00;13.77;;;6.00;99.90;;;;;;4895502;29;20047;-72
2022/11/19 09:30:26;;;;;;;17.55;13.30;;;6.10;99.90;;;;;;4886491;29;20613;-72
2022/11/19 09:32:52;;;;;;;16.13;12.18;;;6.20;99.90;;;;;;4899793;29;20127;-71
2022/11/19 09:35:18;;;;;;;17.48;11.98;;;6.30;99.90;;;;;;4889899;29;20520;-71
2022/11/19 09:37:44;;;;;;;17.13;12.88;;;6.40;99.90;;;;;;4896583;29;20354;-71
2022/11/19 09:40:18;;;;;;;17.85;12.57;;;6.50;99.90;;;;;;4875237;29;20076;-71
2022/11/19 09:43:14;;;;;;;18.10;13.48;;;6.50;99.90;;;;;;4895266;29;20123;-71
2022/11/19 09:46:00;;;;;;;21.02;15.35;;;6.30;99.90;;;;;;4896017;29;20061;-71
2022/11/19 09:48:37;;;;;;;22.42;13.70;;;6.30;99.90;;;;;;4897206;29;20056;-71
2022/11/19 09:51:15;;;;;;;18.63;14.02;;;6.40;99.90;;;;;;4833197;29;1056938;-70
2022/11/19 09:53:50;;;;;;;19.58;12.95;;;6.50;99.90;;;;;;4871415;29;20290;-71
2022/11/19 09:56:37;;;;;;;17.92;13.27;;;6.50;99.90;;;;;;4872371;29;20061;-71
2022/11/19 09:59:15;;;;;;;20.83;14.20;;;6.60;99.90;;;;;;4876972;29;20040;-71
2022/11/19 10:01:41;;;;;;;19.20;13.63;;;6.60;99.90;;;;;;4850096;29;20163;-71
2022/11/19 10:04:08;;;;;;;19.85;14.50;;;6.60;99.90;;;;;;4849110;29;20158;-71
2022/11/19 10:07:10;;;;;;;22.85;16.20;;;6.70;99.90;;;;;;4879179;29;20136;-70
2022/11/19 10:09:53;;;;;;;18.17;13.27;;;6.60;99.90;;;;;;4880351;29;20418;-71
2022/11/19 10:13:10;;;;;;;24.60;16.60;;;6.40;99.90;;;;;;4877677;29;20398;-71
2022/11/19 10:16:17;;;;;;;23.60;16.13;;;6.40;99.90;;;;;;4863462;29;20044;-71
2022/11/19 10:18:58;;;;;;;33.10;16.10;;;6.30;99.90;;;;;;4806489;29;20122;-71
2022/11/19 10:21:41;;;;;;;33.63;15.73;;;6.20;99.90;;;;;;4818498;29;20034;-71
2022/11/19 10:24:33;;;;;;;20.50;13.88;;;6.20;99.90;;;;;;4860483;29;20079;-71
2022/11/19 10:27:01;;;;;;;30.95;21.75;;;6.20;99.90;;;;;;4876140;29;20073;-70
2022/11/19 10:29:31;;;;;;;23.42;15.77;;;6.10;99.90;;;;;;4873300;29;20145;-71
2022/11/19 10:32:21;;;;;;;18.88;13.63;;;5.90;99.90;;;;;;4870897;29;20064;-71
2022/11/19 10:34:50;;;;;;;20.40;14.35;;;5.80;99.90;;;;;;4878082;29;20149;-71
2022/11/19 10:37:19;;;;;;;20.33;15.02;;;5.90;99.90;;;;;;4870707;29;20043;-71
2022/11/19 10:40:12;;;;;;;18.10;13.27;;;5.90;99.90;;;;;;4874401;29;20052;-71
2022/11/19 10:42:41;;;;;;;17.02;12.80;;;5.80;99.90;;;;;;4876506;29;20392;-71
2022/11/19 10:45:22;;;;;;;16.13;12.07;;;5.70;99.90;;;;;;4868585;29;20048;-70
2022/11/19 10:47:58;;;;;;;32.35;11.57;;;5.70;99.90;;;;;;4872676;29;20492;-72
2022/11/19 10:50:24;;;;;;;20.88;12.52;;;5.50;99.90;;;;;;4872653;29;20041;-72
2022/11/19 10:52:56;;;;;;;18.55;12.40;;;5.50;99.90;;;;;;4877191;29;20048;-72
2022/11/19 10:55:41;;;;;;;16.85;11.38;;;5.40;99.90;;;;;;4875931;29;20517;-72
2022/11/19 10:58:09;;;;;;;18.58;12.10;;;5.50;99.90;;;;;;4875137;29;20151;-72
2022/11/19 11:00:38;;;;;;;18.58;12.32;;;5.50;99.90;;;;;;4880994;29;20108;-72
2022/11/19 11:03:09;;;;;;;18.33;12.43;;;5.40;99.90;;;;;;4881916;29;20390;-72
2022/11/19 11:05:56;;;;;;;20.27;12.18;;;5.50;99.90;;;;;;4878563;29;20063;-72
2022/11/19 11:08:22;;;;;;;19.25;13.30;;;5.50;99.90;;;;;;4875253;29;20055;-72
2022/11/19 11:10:50;;;;;;;18.10;12.25;;;5.60;99.90;;;;;;4876458;29;20033;-72
2022/11/19 11:16:44;;;;;;;14.05;10.90;;;5.50;99.90;;;;;;4873014;29;20056;-73
2022/11/19 11:19:16;;;;;;;16.23;11.45;;;5.40;99.90;;;;;;4876619;29;20399;-72
2022/11/19 11:21:43;;;;;;;19.52;12.20;;;5.40;99.90;;;;;;4872102;29;20040;-73
2022/11/19 11:24:11;;;;;;;17.00;11.93;;;5.50;99.90;;;;;;4876249;29;20045;-72
2022/11/19 11:26:37;;;;;;;16.00;12.02;;;5.40;99.90;;;;;;4872587;29;20053;-72
2022/11/19 11:29:11;;;;;;;23.02;12.52;;;5.40;99.90;;;;;;4866632;29;20048;-73
2022/11/19 11:31:41;;;;;;;18.42;12.65;;;5.40;99.90;;;;;;4870389;29;20064;-73
2022/11/19 11:34:26;;;;;;;18.90;11.55;;;5.30;99.90;;;;;;4884585;29;20167;-72
2022/11/19 11:36:53;;;;;;;17.08;12.55;;;5.30;99.90;;;;;;4887503;29;20410;-72
2022/11/19 11:39:39;;;;;;;15.43;11.05;;;5.40;99.90;;;;;;4874362;29;20049;-72
2022/11/19 11:42:11;;;;;;;18.92;12.68;;;5.40;99.90;;;;;;4875742;29;20129;-73
2022/11/19 11:44:47;;;;;;;20.15;13.82;;;5.30;99.90;;;;;;4874069;29;20043;-72
2022/11/19 11:47:38;;;;;;;22.45;14.27;;;5.30;99.90;;;;;;4866456;29;20045;-73
2022/11/19 11:50:07;;;;;;;19.88;12.27;;;5.30;99.90;;;;;;4873638;29;21491;-72
2022/11/19 11:52:39;;;;;;;20.95;14.32;;;5.30;99.90;;;;;;4873325;29;20041;-73
2022/11/19 11:55:26;;;;;;;20.75;14.38;;;5.20;99.90;;;;;;4875358;29;20049;-73
2022/11/19 11:57:58;;;;;;;28.58;18.30;;;5.30;99.90;;;;;;4872720;29;20085;-72
2022/11/19 12:00:37;;;;;;;27.80;18.55;;;5.30;99.90;;;;;;4869820;29;20027;-73
2022/11/19 12:03:14;;;;;;;30.90;21.55;;;5.20;99.90;;;;;;4877042;29;20059;-72
2022/11/19 12:06:04;;;;;;;23.02;14.85;;;5.20;99.90;;;;;;4876930;29;20048;-72
2022/11/19 12:08:54;;;;;;;21.90;14.57;;;5.20;99.90;;;;;;4875607;29;20544;-73
2022/11/19 12:11:55;;;;;;;25.60;13.98;;;5.20;99.90;;;;;;4877256;29;21162;-74
2022/11/19 12:14:47;;;;;;;21.23;14.45;;;5.30;99.90;;;;;;4880079;29;20036;-73
2022/11/19 12:17:31;;;;;;;35.53;18.45;;;5.20;99.90;;;;;;4874077;29;20159;-72
2022/11/19 12:20:17;;;;;;;25.77;16.27;;;5.10;99.90;;;;;;4878611;29;20132;-72
2022/11/19 12:23:10;;;;;;;17.85;13.25;;;5.10;99.90;;;;;;4877458;29;20032;-72
2022/11/19 12:26:02;;;;;;;24.23;13.90;;;5.00;99.90;;;;;;4880465;29;20041;-72
2022/11/19 12:28:47;;;;;;;24.15;15.57;;;4.90;99.90;;;;;;4877666;29;20053;-73
2022/11/19 12:31:18;;;;;;;25.58;16.88;;;4.90;99.90;;;;;;4878160;29;20048;-72
2022/11/19 12:34:19;;;;;;;25.93;15.10;;;4.90;99.90;;;;;;4870298;29;20100;-72
2022/11/19 12:37:23;;;;;;;20.95;14.57;;;5.00;99.90;;;;;;4825031;29;20502;-73
2022/11/19 12:40:00;;;;;;;23.48;14.68;;;5.00;99.90;;;;;;4850179;29;20044;-69
2022/11/19 12:42:48;;;;;;;20.20;13.70;;;5.00;99.90;;;;;;4871178;29;20514;-73
2022/11/19 12:46:00;;;;;;;21.30;14.27;;;5.00;99.90;;;;;;4861652;29;20041;-72
2022/11/19 12:48:26;;;;;;;22.23;14.63;;;5.00;99.90;;;;;;4809442;29;20062;-72
2022/11/19 12:51:14;;;;;;;28.58;14.77;;;5.10;99.90;;;;;;4867559;29;20067;-72
2022/11/19 12:54:03;;;;;;;25.05;14.80;;;5.10;99.90;;;;;;4878227;29;20641;-72
2022/11/19 12:57:10;;;;;;;21.40;13.80;;;5.10;99.90;;;;;;4882437;29;20037;-72
2022/11/19 12:59:44;;;;;;;23.63;14.52;;;5.20;99.90;;;;;;4880584;29;20124;-72
2022/11/19 13:02:27;;;;;;;21.42;15.02;;;5.30;99.90;;;;;;4883619;29;20140;-73
2022/11/19 13:05:17;;;;;;;22.35;14.70;;;5.30;99.90;;;;;;4877173;29;20925;-72
2022/11/19 13:08:00;;;;;;;45.80;24.42;;;5.30;99.90;;;;;;4871663;29;20092;-73
2022/11/19 13:10:31;;;;;;;20.63;15.20;;;5.30;99.90;;;;;;4869089;29;20206;-72
2022/11/19 13:12:59;;;;;;;29.92;17.48;;;5.40;99.90;;;;;;4872548;29;20048;-72
2022/11/19 13:15:42;;;;;;;22.52;15.10;;;5.40;99.90;;;;;;4871483;29;20747;-72
2022/11/19 13:18:15;;;;;;;21.67;14.80;;;5.60;99.90;;;;;;4875765;29;20048;-72
2022/11/19 13:20:50;;;;;;;21.17;14.50;;;5.80;99.90;;;;;;4873917;29;20127;-73
2022/11/19 13:23:41;;;;;;;21.23;14.25;;;5.80;99.90;;;;;;4870998;29;20688;-73
2022/11/19 13:26:12;;;;;;;33.72;21.85;;;5.80;99.90;;;;;;4866153;29;20493;-72
2022/11/19 13:28:45;;;;;;;28.10;19.45;;;5.70;99.90;;;;;;4874246;29;20565;-73
2022/11/19 13:31:37;;;;;;;38.22;25.55;;;5.60;99.90;;;;;;4872342;29;20413;-72
2022/11/19 13:34:15;;;;;;;24.30;17.63;;;5.70;99.90;;;;;;4874263;29;20041;-72
2022/11/19 13:36:47;;;;;;;22.92;16.63;;;6.00;99.90;;;;;;4884705;29;20033;-73
2022/11/19 13:39:32;;;;;;;25.88;19.52;;;6.20;99.90;;;;;;4878052;29;20116;-72